Time;durP1;ratioP1;P1;durP2;ratioP2;P2;SDS_P1;SDS_P2;PMS_P1;PMS_P2;Temp;Humidity;BMP_temperature;BMP_pressure;BME280_temperature;BME280_humidity;BME280_pressure;Samples;Min_cycle;Max_cycle;Signal;HPM_P1;HPM_P2
2023/09/10 00:03:24;;;;;;;35.80;23.20;;;;;;;16.08;71.55;99003.83;435421;1264;107993;-43
2023/09/10 00:13:32;;;;;;;31.20;24.30;;;;;;;15.91;71.75;98991.43;435351;1254;99064;-42
2023/09/10 00:23:40;;;;;;;30.80;24.80;;;;;;;15.72;72.05;98982.75;435465;1254;106953;-41
2023/09/10 00:33:47;;;;;;;25.90;22.20;;;;;;;15.56;72.52;98984.02;435038;1254;402604;-42
2023/09/10 00:43:54;;;;;;;28.90;22.60;;;;;;;15.51;72.92;98981.84;435393;1253;112907;-41
2023/09/10 00:54:02;;;;;;;29.00;23.90;;;;;;;15.43;73.07;98983.32;435237;1253;109396;-41
2023/09/10 01:04:10;;;;;;;29.30;23.30;;;;;;;15.39;73.33;98972.52;435445;1251;99234;-42
2023/09/10 01:14:23;;;;;;;29.80;22.50;;;;;;;15.37;73.54;98963.91;435358;1254;107095;-42
2023/09/10 01:24:45;;;;;;;30.30;22.90;;;;;;;15.25;73.86;98955.13;435350;1251;99253;-41
2023/09/10 01:34:56;;;;;;;29.90;23.00;;;;;;;15.26;74.13;98956.02;436636;1253;111683;-42
2023/09/10 01:45:05;;;;;;;37.40;28.20;;;;;;;15.24;74.33;98953.30;436407;1254;108594;-43
2023/09/10 02:15:23;;;;;;;35.10;25.40;;;;;;;14.96;74.89;98952.37;436303;1271;99247;-42
2023/09/10 02:35:37;;;;;;;35.30;23.30;;;;;;;15.02;75.46;98946.09;436204;1261;107700;-42
2023/09/10 02:45:43;;;;;;;34.10;26.90;;;;;;;14.93;75.59;98953.83;436357;1248;99246;-43
2023/09/10 02:55:58;;;;;;;28.10;24.40;;;;;;;14.77;75.74;98963.23;436249;1254;108122;-41
2023/09/10 03:16:17;;;;;;;29.90;22.30;;;;;;;14.68;76.50;98958.45;436172;1254;112989;-43
2023/09/10 03:26:20;;;;;;;30.30;23.70;;;;;;;14.69;77.18;98956.75;436297;1248;108823;-43
2023/09/10 03:36:28;;;;;;;30.30;24.20;;;;;;;14.64;77.45;98948.06;436127;1253;99355;-42
2023/09/10 03:56:40;;;;;;;30.80;26.20;;;;;;;14.51;78.20;98947.16;436270;1247;99304;-42
2023/09/10 04:16:53;;;;;;;28.90;22.20;;;;;;;14.54;78.63;98934.80;436317;1253;108911;-42
2023/09/10 04:26:59;;;;;;;26.40;21.60;;;;;;;14.57;78.98;98932.44;436357;1248;99254;-43
2023/09/10 04:37:05;;;;;;;30.90;23.60;;;;;;;14.62;79.29;98930.41;436231;1248;107474;-42
2023/09/10 04:47:11;;;;;;;29.20;23.10;;;;;;;14.67;79.13;98930.70;436111;1254;99212;-42
2023/09/10 04:57:18;;;;;;;27.90;24.10;;;;;;;14.75;79.46;98935.73;436398;1253;111637;-42
2023/09/10 05:47:43;;;;;;;30.20;24.30;;;;;;;18.51;79.34;98940.90;436054;1253;111403;-42
2023/09/10 05:57:49;;;;;;;32.70;25.30;;;;;;;19.37;78.21;98940.64;436232;1271;107156;-42
2023/09/10 06:17:58;;;;;;;31.60;23.00;;;;;;;20.52;75.96;98946.06;436241;1252;108632;-41
2023/09/10 06:28:05;;;;;;;29.30;23.40;;;;;;;21.18;74.67;98948.52;436214;1248;99327;-42
2023/09/10 06:38:09;;;;;;;27.30;23.90;;;;;;;21.79;73.73;98947.41;436248;1248;110725;-43
2023/09/10 07:18:20;;;;;;;27.90;23.80;;;;;;;23.69;69.24;98961.63;436299;1247;99240;-42
2023/09/10 08:09:34;;;;;;;23.90;19.50;;;;;;;25.29;67.82;98967.92;436387;1253;98683;-41
2023/09/10 08:19:38;;;;;;;23.90;19.00;;;;;;;25.84;66.79;98966.10;436327;1253;110862;-41
2023/09/10 09:09:54;;;;;;;14.40;12.70;;;;;;;28.07;62.09;98955.34;436241;1253;113955;-41
2023/09/10 10:00:33;;;;;;;9.30;8.00;;;;;;;28.51;55.17;98931.27;436347;1248;111441;-41
2023/09/10 10:20:52;;;;;;;8.60;7.50;;;;;;;28.87;52.88;98925.90;436284;1252;98570;-43
2023/09/10 10:30:59;;;;;;;7.90;7.20;;;;;;;28.86;51.38;98917.49;436374;1247;107380;-43
2023/09/10 11:01:14;;;;;;;9.50;8.20;;;;;;;28.68;49.37;98892.06;436270;1253;107699;-42
2023/09/10 11:11:50;;;;;;;7.60;6.90;;;;;;;28.86;49.76;98884.29;436327;1248;98597;-42
2023/09/10 11:42:23;;;;;;;9.90;7.30;;;;;;;29.07;48.00;98865.13;436457;1253;110098;-41
2023/09/10 11:52:30;;;;;;;8.00;6.30;;;;;;;29.06;47.87;98855.62;436200;1253;108321;-41
2023/09/10 12:22:50;;;;;;;8.10;7.30;;;;;;;28.78;47.21;98839.71;436344;1254;98010;-42
2023/09/10 12:32:53;;;;;;;10.40;7.60;;;;;;;28.65;47.17;98831.11;436070;1251;437005;-44
2023/09/10 12:43:01;;;;;;;11.30;7.80;;;;;;;28.46;46.84;98820.58;436273;1248;108488;-40
2023/09/10 12:53:08;;;;;;;8.50;6.50;;;;;;;28.43;47.02;98821.68;436305;1250;99234;-42
2023/09/10 13:03:15;;;;;;;8.70;7.10;;;;;;;28.32;46.76;98821.55;436370;1251;107991;-41
2023/09/10 13:23:28;;;;;;;;;;;;;;;28.14;45.40;98821.58;436295;1253;112672;-42
2023/09/10 13:33:34;;;;;;;7.60;6.80;;;;;;;28.08;45.44;98818.14;436277;1253;108571;-41
2023/09/10 13:43:41;;;;;;;12.40;8.20;;;;;;;27.99;45.25;98813.73;436303;1248;99333;-40
2023/09/10 13:53:49;;;;;;;8.10;6.20;;;;;;;27.97;45.32;98810.11;436356;1248;107399;-41
2023/09/10 14:03:56;;;;;;;8.10;6.80;;;;;;;28.00;45.31;98808.73;436374;1253;98000;-44
2023/09/10 14:14:03;;;;;;;9.00;6.00;;;;;;;27.95;45.02;98807.48;436515;1253;112475;-41
2023/09/10 14:24:08;;;;;;;7.00;6.30;;;;;;;27.91;44.85;98802.70;436462;1248;108218;-42
2023/09/10 14:34:14;;;;;;;6.90;6.20;;;;;;;27.87;44.85;98796.65;436460;1252;97948;-41
2023/09/10 14:44:23;;;;;;;12.20;6.10;;;;;;;27.79;44.58;98787.77;436550;1253;108512;-41
2023/09/10 14:54:34;;;;;;;10.50;6.70;;;;;;;27.69;44.78;98786.70;436419;1252;99209;-41
2023/09/10 15:04:38;;;;;;;;;;;;;;;27.52;44.80;98785.17;436356;1253;111875;-42
2023/09/10 15:24:51;;;;;;;;;;;;;;;27.28;45.32;98768.30;436389;1253;98748;-41
2023/09/10 15:34:58;;;;;;;6.50;5.80;;;;;;;27.20;45.50;98757.70;436319;1248;107953;-40
2023/09/10 15:55:10;;;;;;;8.50;7.10;;;;;;;26.86;45.93;98754.13;436142;1253;109551;-41
2023/09/10 16:05:17;;;;;;;8.30;6.10;;;;;;;26.68;45.77;98757.70;436381;1248;108598;-42
2023/09/10 16:15:24;;;;;;;7.50;5.90;;;;;;;26.47;46.28;98759.45;436398;1253;97902;-40
2023/09/10 16:25:31;;;;;;;16.70;6.80;;;;;;;26.20;46.58;98768.00;436262;1253;108926;-41
2023/09/10 16:35:38;;;;;;;12.00;5.70;;;;;;;25.89;47.23;98766.87;436323;1248;99128;-40
2023/09/10 16:45:46;;;;;;;12.90;6.60;;;;;;;25.32;48.37;98769.17;436316;1251;111490;-43
2023/09/10 17:16:06;;;;;;;10.90;7.20;;;;;;;23.30;52.17;98770.60;436297;1253;108399;-42
2023/09/10 17:36:21;;;;;;;11.70;8.20;;;;;;;22.13;54.43;98772.40;436322;1253;111451;-42
2023/09/10 17:46:28;;;;;;;18.20;10.30;;;;;;;21.78;55.36;98774.98;436295;1251;107937;-42
2023/09/10 17:56:36;;;;;;;18.70;12.80;;;;;;;21.45;56.17;98774.45;436190;1250;99243;-43
2023/09/10 18:06:43;;;;;;;23.30;16.30;;;;;;;21.08;56.86;98768.57;436381;1248;109564;-41
2023/09/10 18:16:51;;;;;;;28.50;16.80;;;;;;;20.87;57.75;98767.85;436238;1248;99311;-41
2023/09/10 18:26:57;;;;;;;23.10;16.40;;;;;;;20.71;58.41;98772.76;436562;1253;111314;-42
2023/09/10 18:37:05;;;;;;;25.60;18.00;;;;;;;20.59;59.23;98776.33;436293;1251;109095;-40
2023/09/10 18:47:13;;;;;;;28.20;18.80;;;;;;;20.40;59.96;98786.11;436398;1253;99241;-41
2023/09/10 18:57:19;;;;;;;32.20;18.80;;;;;;;20.24;60.69;98787.54;436206;1253;107984;-41
2023/09/10 19:07:25;;;;;;;23.80;18.10;;;;;;;20.16;61.54;98783.73;436360;1251;99215;-40
2023/09/10 19:17:30;;;;;;;30.70;21.50;;;;;;;20.03;62.23;98785.27;436178;1252;111500;-45
2023/09/10 19:27:37;;;;;;;31.70;21.40;;;;;;;19.87;62.73;98780.58;436443;1248;107522;-40
2023/09/10 19:37:43;;;;;;;26.00;18.60;;;;;;;19.73;63.17;98779.41;436104;1253;99553;-41
2023/09/10 19:47:49;;;;;;;25.00;20.10;;;;;;;19.68;63.68;98774.11;436292;1253;108711;-42
2023/09/10 19:57:56;;;;;;;30.50;22.30;;;;;;;19.63;64.09;98774.15;436352;1253;99281;-41
2023/09/10 20:18:09;;;;;;;27.00;18.60;;;;;;;19.28;64.84;98770.18;436281;1253;108535;-43
2023/09/10 20:28:16;;;;;;;24.50;18.10;;;;;;;19.15;65.39;98767.85;436305;1251;99284;-42
2023/09/10 20:38:23;;;;;;;25.70;18.40;;;;;;;19.04;65.86;98771.68;436319;1258;107805;-41
2023/09/10 20:48:30;;;;;;;27.10;19.30;;;;;;;18.84;66.23;98771.90;436865;1255;97989;-41
2023/09/10 20:58:36;;;;;;;19.80;16.20;;;;;;;18.77;66.76;98764.67;436331;1253;110857;-41
2023/09/10 21:08:43;;;;;;;24.40;16.20;;;;;;;18.73;67.08;98756.89;436318;1248;108217;-42
2023/09/10 21:18:51;;;;;;;22.90;17.80;;;;;;;18.70;67.61;98750.70;436353;1250;99348;-43
2023/09/10 21:28:56;;;;;;;26.10;19.50;;;;;;;18.58;68.07;98754.51;436340;1253;107735;-41
2023/09/10 21:49:09;;;;;;;27.60;18.20;;;;;;;18.21;68.82;98757.14;436302;1253;112246;-41
2023/09/10 21:59:17;;;;;;;26.50;18.40;;;;;;;18.06;69.33;98745.22;436317;1253;108027;-42
2023/09/10 22:09:24;;;;;;;27.70;19.50;;;;;;;17.96;69.70;98741.20;436311;1250;99205;-42
2023/09/10 22:19:31;;;;;;;28.20;21.00;;;;;;;17.86;70.17;98739.48;436282;1253;108162;-43
2023/09/10 22:29:37;;;;;;;32.50;23.00;;;;;;;17.65;70.43;98742.05;436301;1253;99231;-41
2023/09/10 22:39:44;;;;;;;28.40;20.30;;;;;;;17.51;70.67;98736.26;436174;1261;111941;-41
2023/09/10 22:49:50;;;;;;;28.00;20.70;;;;;;;17.44;71.10;98736.16;436459;1261;107882;-42
2023/09/10 22:59:57;;;;;;;28.30;20.20;;;;;;;17.40;71.37;98737.02;436316;1253;99462;-42
2023/09/10 23:10:03;;;;;;;28.70;20.90;;;;;;;17.37;71.55;98731.17;436245;1248;108485;-42
2023/09/10 23:40:37;;;;;;;25.90;18.70;;;;;;;17.06;71.79;98713.48;436146;1248;110444;-42
2023/09/10 23:50:44;;;;;;;30.10;19.90;;;;;;;16.97;71.94;98712.79;436408;1261;99246;-41
